createdAt,value
2022-10-02T00:00:57.044Z,95.81
2022-10-02T00:03:28.408Z,96.16
2022-10-02T00:06:01.293Z,96.60
2022-10-02T00:08:35.575Z,97.14
2022-10-02T00:11:09.137Z,97.70
2022-10-02T00:13:42.156Z,97.92
2022-10-02T00:16:16.197Z,98.59
2022-10-02T00:18:45.127Z,98.78
2022-10-02T00:21:22.313Z,98.83
2022-10-02T00:23:54.960Z,98.13
2022-10-02T00:26:27.517Z,97.77
2022-10-02T00:29:02.605Z,97.37
2022-10-02T00:31:39.376Z,96.18
2022-10-02T00:34:21.772Z,96.14
2022-10-02T00:36:58.489Z,94.64
2022-10-02T00:39:40.767Z,93.34
2022-10-02T00:42:42.041Z,93.40
2022-10-02T00:45:36.939Z,92.88
2022-10-02T00:48:13.685Z,92.06
2022-10-02T00:50:51.097Z,92.40
2022-10-02T00:53:31.710Z,90.93
2022-10-02T00:56:12.763Z,91.52
2022-10-02T00:59:01.065Z,90.36
2022-10-02T01:01:42.314Z,90.19
2022-10-02T01:04:14.356Z,89.63
2022-10-02T01:06:42.921Z,89.64
2022-10-02T01:09:12.016Z,89.69
2022-10-02T01:11:39.710Z,89.55
2022-10-02T01:14:07.800Z,89.77
2022-10-02T01:16:37.020Z,89.51
2022-10-02T01:19:04.947Z,89.95
2022-10-02T01:21:38.513Z,89.80
2022-10-02T01:24:14.764Z,89.68
2022-10-02T01:26:45.733Z,89.80
2022-10-02T01:29:16.416Z,89.28
2022-10-02T01:31:44.205Z,89.18
2022-10-02T01:34:12.253Z,88.97
2022-10-02T01:36:39.983Z,88.24
2022-10-02T01:39:07.833Z,88.37
2022-10-02T01:41:40.931Z,88.19
2022-10-02T01:44:10.608Z,88.92
2022-10-02T01:46:48.241Z,89.04
2022-10-02T01:49:31.397Z,88.54
2022-10-02T01:52:20.041Z,88.19
2022-10-02T01:54:59.336Z,87.84
2022-10-02T01:57:39.052Z,88.43
2022-10-02T02:00:11.797Z,89.06
2022-10-02T02:02:49.326Z,87.60
2022-10-02T02:05:25.805Z,87.75
2022-10-02T02:08:01.847Z,87.90
2022-10-02T02:10:42.680Z,87.22
2022-10-02T02:13:16.916Z,87.15
2022-10-02T02:15:51.829Z,87.50
2022-10-02T02:18:25.892Z,87.27
2022-10-02T02:20:58.384Z,87.71
2022-10-02T02:23:30.695Z,86.43
2022-10-02T02:26:03.628Z,86.96
2022-10-02T02:28:33.815Z,87.32
2022-10-02T02:31:04.636Z,87.34
2022-10-02T02:33:37.683Z,87.48
2022-10-02T02:36:12.508Z,87.45
2022-10-02T02:38:45.223Z,87.60
2022-10-02T02:41:16.386Z,87.66
2022-10-02T02:43:48.284Z,87.56
2022-10-02T02:46:23.791Z,87.78
2022-10-02T02:48:56.958Z,87.61
2022-10-02T02:51:28.500Z,87.99
2022-10-02T02:54:04.114Z,88.50
2022-10-02T02:56:34.269Z,88.10
2022-10-02T02:59:07.516Z,87.71
2022-10-02T03:01:36.952Z,87.71
2022-10-02T03:04:04.545Z,88.74
2022-10-02T03:06:38.022Z,87.47
2022-10-02T03:09:07.996Z,87.26
2022-10-02T03:11:46.744Z,86.77
2022-10-02T03:14:45.688Z,87.23
2022-10-02T03:17:27.936Z,87.60
2022-10-02T03:20:07.164Z,86.90
2022-10-02T03:22:42.106Z,87.50
2022-10-02T03:25:16.621Z,87.16
2022-10-02T03:27:49.335Z,86.75
2022-10-02T03:30:20.550Z,86.22
2022-10-02T03:32:53.517Z,86.31
2022-10-02T03:35:22.687Z,85.40
2022-10-02T03:37:52.983Z,85.69
2022-10-02T03:40:23.037Z,85.84
2022-10-02T03:42:51.808Z,85.81
2022-10-02T03:45:46.194Z,85.82
2022-10-02T03:48:08.844Z,85.51
2022-10-02T03:50:36.707Z,85.94
2022-10-02T03:53:12.888Z,85.53
2022-10-02T03:55:42.835Z,85.35
2022-10-02T03:58:14.528Z,85.88
2022-10-02T04:00:48.032Z,86.49
2022-10-02T04:03:19.324Z,87.16
2022-10-02T04:05:52.615Z,87.46
2022-10-02T04:08:23.512Z,88.38
2022-10-02T04:10:55.561Z,89.12
2022-10-02T04:13:29.712Z,90.13
2022-10-02T04:16:05.993Z,91.44
2022-10-02T04:18:41.627Z,93.20
2022-10-02T04:21:17.326Z,93.62
2022-10-02T04:23:51.525Z,95.13
2022-10-02T04:26:25.528Z,94.63
2022-10-02T04:28:57.708Z,94.90
2022-10-02T04:31:27.204Z,95.63
2022-10-02T04:34:02.320Z,96.07
2022-10-02T04:36:42.008Z,96.60
2022-10-02T04:39:30.424Z,96.59
2022-10-02T04:42:24.158Z,97.05
2022-10-02T04:45:10.381Z,97.51
2022-10-02T04:48:01.357Z,97.79
2022-10-02T04:50:52.577Z,98.54
2022-10-02T04:53:32.854Z,99.14
2022-10-02T04:56:27.720Z,99.40
2022-10-02T04:59:16.967Z,99.29
2022-10-02T05:01:56.526Z,99.84
2022-10-02T05:04:41.856Z,99.83
2022-10-02T05:07:31.019Z,100.00
2022-10-02T05:10:03.260Z,100.00
2022-10-02T05:12:45.745Z,100.00
2022-10-02T05:15:27.595Z,100.00
2022-10-02T05:18:08.810Z,100.00
2022-10-02T05:20:53.160Z,100.00
2022-10-02T05:23:50.921Z,100.00
2022-10-02T05:26:36.952Z,100.00
2022-10-02T05:29:31.092Z,100.00
2022-10-02T05:32:05.768Z,100.00
2022-10-02T05:34:49.585Z,100.00
2022-10-02T05:37:31.665Z,100.00
2022-10-02T05:40:11.123Z,100.00
2022-10-02T05:42:45.035Z,100.00
2022-10-02T05:45:22.592Z,100.00
2022-10-02T05:47:51.682Z,100.00
2022-10-02T05:50:22.344Z,100.00
2022-10-02T05:52:57.150Z,100.00
2022-10-02T05:55:33.769Z,100.00
2022-10-02T05:58:07.258Z,100.00
2022-10-02T06:00:39.164Z,100.00
2022-10-02T06:03:16.128Z,100.00
2022-10-02T06:05:55.148Z,100.00
2022-10-02T06:08:29.709Z,100.00
2022-10-02T06:11:04.300Z,100.00
2022-10-02T06:13:37.992Z,100.00
2022-10-02T06:16:13.577Z,100.00
2022-10-02T06:18:44.799Z,100.00
2022-10-02T06:21:24.994Z,100.00
2022-10-02T06:23:57.025Z,100.00
2022-10-02T06:26:39.229Z,100.00
2022-10-02T06:29:18.660Z,100.00
2022-10-02T06:31:54.519Z,100.00
2022-10-02T06:34:23.475Z,100.00
2022-10-02T06:37:04.350Z,100.00
2022-10-02T06:39:57.871Z,100.00
2022-10-02T06:42:42.675Z,100.00
2022-10-02T06:45:24.156Z,100.00
2022-10-02T06:48:02.982Z,100.00
2022-10-02T06:50:42.920Z,100.00
2022-10-02T06:53:25.491Z,100.00
2022-10-02T06:56:01.216Z,100.00
2022-10-02T06:58:46.253Z,100.00
2022-10-02T07:01:25.946Z,100.00
2022-10-02T07:04:07.740Z,100.00
2022-10-02T07:06:47.239Z,100.00
2022-10-02T07:09:39.324Z,100.00
2022-10-02T07:12:21.051Z,100.00
2022-10-02T07:15:10.864Z,100.00
2022-10-02T07:17:54.164Z,100.00
2022-10-02T07:20:33.535Z,100.00
2022-10-02T07:23:26.497Z,100.00
2022-10-02T07:26:15.365Z,100.00
2022-10-02T07:28:51.413Z,100.00
2022-10-02T07:31:33.003Z,100.00
2022-10-02T07:34:15.581Z,100.00
2022-10-02T07:36:50.000Z,100.00
2022-10-02T07:39:33.056Z,100.00
2022-10-02T07:42:14.577Z,100.00
2022-10-02T07:45:02.256Z,100.00
2022-10-02T07:47:46.936Z,100.00
2022-10-02T07:50:20.230Z,100.00
2022-10-02T07:52:56.329Z,100.00
2022-10-02T07:55:24.999Z,100.00
2022-10-02T07:58:00.478Z,100.00
2022-10-02T08:00:31.883Z,100.00
2022-10-02T08:03:03.580Z,100.00
2022-10-02T08:05:35.776Z,100.00
2022-10-02T08:08:10.796Z,100.00
2022-10-02T08:10:42.612Z,100.00
2022-10-02T08:13:20.638Z,100.00
2022-10-02T08:15:52.377Z,99.94
2022-10-02T08:18:36.144Z,99.90
2022-10-02T08:21:06.487Z,99.20
2022-10-02T08:23:40.191Z,98.66
2022-10-02T08:26:12.532Z,97.92
2022-10-02T08:28:44.887Z,97.50
2022-10-02T08:31:13.331Z,96.72
2022-10-02T08:33:43.179Z,96.45
2022-10-02T08:36:29.760Z,96.23
2022-10-02T08:39:09.268Z,95.83
2022-10-02T08:42:12.359Z,95.08
2022-10-02T08:45:14.771Z,95.44
2022-10-02T08:48:12.064Z,96.00
2022-10-02T08:51:20.580Z,96.71
2022-10-02T08:54:27.019Z,96.40
2022-10-02T08:57:13.126Z,97.58
2022-10-02T09:00:10.069Z,97.57
2022-10-02T09:03:15.789Z,97.41
2022-10-02T09:06:16.969Z,97.59
2022-10-02T09:09:35.636Z,98.42
2022-10-02T09:12:24.064Z,99.10
2022-10-02T09:14:58.020Z,99.68
2022-10-02T09:17:44.104Z,100.00
2022-10-02T09:21:08.112Z,100.00
2022-10-02T09:24:17.039Z,99.82
2022-10-02T09:27:03.388Z,100.00
2022-10-02T09:30:09.914Z,98.62
2022-10-02T09:33:29.312Z,98.07
2022-10-02T09:36:40.899Z,96.40
2022-10-02T09:39:36.262Z,97.13
2022-10-02T09:42:44.637Z,95.90
2022-10-02T09:45:40.945Z,95.24
2022-10-02T09:48:40.793Z,95.08
2022-10-02T09:51:41.753Z,94.82
2022-10-02T09:54:42.166Z,94.63
2022-10-02T09:57:45.180Z,96.88
2022-10-02T10:00:27.468Z,97.04
2022-10-02T10:03:31.120Z,97.72
2022-10-02T10:06:29.495Z,98.11
2022-10-02T10:09:34.843Z,98.15
2022-10-02T10:12:35.211Z,98.17
2022-10-02T10:15:38.470Z,98.33
2022-10-02T10:18:36.313Z,98.66
2022-10-02T10:21:18.073Z,98.18
2022-10-02T10:24:27.653Z,97.99
2022-10-02T10:27:18.016Z,97.49
2022-10-02T10:30:09.637Z,97.24
2022-10-02T10:33:02.872Z,97.65
2022-10-02T10:36:29.325Z,97.70
2022-10-02T10:39:14.615Z,99.20
2022-10-02T10:42:24.067Z,98.69
2022-10-02T10:45:19.891Z,98.71
2022-10-02T10:48:05.328Z,98.87
2022-10-02T10:50:44.292Z,98.82
2022-10-02T10:53:34.304Z,99.53
2022-10-02T10:56:36.969Z,99.28
2022-10-02T10:59:49.107Z,99.51
2022-10-02T11:02:54.715Z,99.47
2022-10-02T11:05:40.844Z,100.00
2022-10-02T11:08:33.214Z,99.83
2022-10-02T11:11:08.723Z,99.22
2022-10-02T11:13:58.248Z,99.37
2022-10-02T11:17:03.396Z,98.51
2022-10-02T11:19:47.642Z,97.63
2022-10-02T11:22:40.650Z,95.92
2022-10-02T11:25:46.966Z,96.52
2022-10-02T11:28:40.013Z,94.32
2022-10-02T11:31:22.738Z,95.12
2022-10-02T11:34:22.087Z,95.49
2022-10-02T11:37:09.298Z,95.59
2022-10-02T11:40:15.274Z,95.61
2022-10-02T11:42:58.820Z,94.88
2022-10-02T11:45:41.665Z,93.21
2022-10-02T11:48:51.038Z,92.62
2022-10-02T11:51:36.923Z,93.18
2022-10-02T11:54:22.139Z,91.66
2022-10-02T11:57:16.045Z,91.05
2022-10-02T11:59:52.048Z,91.50
2022-10-02T12:02:27.256Z,92.07
2022-10-02T12:05:10.790Z,91.90
2022-10-02T12:07:44.103Z,92.76
2022-10-02T12:10:29.399Z,93.50
2022-10-02T12:13:11.993Z,94.00
2022-10-02T12:15:47.816Z,95.41
2022-10-02T12:18:28.067Z,95.48
2022-10-02T12:21:32.924Z,95.47
2022-10-02T12:24:29.444Z,95.97
2022-10-02T12:27:04.161Z,96.14
2022-10-02T12:30:00.371Z,96.10
2022-10-02T12:32:42.274Z,96.31
2022-10-02T12:35:26.180Z,97.06
2022-10-02T12:38:03.677Z,96.99
2022-10-02T12:40:38.339Z,96.63
2022-10-02T12:43:40.316Z,96.18
2022-10-02T12:46:21.027Z,95.59
2022-10-02T12:49:14.929Z,96.12
2022-10-02T12:51:55.084Z,96.81
2022-10-02T12:54:58.864Z,96.60
2022-10-02T12:57:56.109Z,96.30
2022-10-02T13:00:26.537Z,95.19
2022-10-02T13:03:31.195Z,95.25
2022-10-02T13:06:33.760Z,95.46
2022-10-02T13:09:29.731Z,95.12
2022-10-02T13:12:17.808Z,94.57
2022-10-02T13:15:18.838Z,94.86
2022-10-02T13:17:55.845Z,94.79
2022-10-02T13:20:37.747Z,94.70
2022-10-02T13:23:17.717Z,94.48
2022-10-02T13:25:58.706Z,93.20
2022-10-02T13:28:53.908Z,92.60
2022-10-02T13:31:36.529Z,92.79
2022-10-02T13:34:22.424Z,93.33
2022-10-02T13:37:05.663Z,92.39
2022-10-02T13:40:03.328Z,93.21
2022-10-02T13:42:43.969Z,93.32
2022-10-02T13:45:19.442Z,92.95
2022-10-02T13:47:57.185Z,94.06
2022-10-02T13:50:42.169Z,94.88
2022-10-02T13:53:34.308Z,95.34
2022-10-02T13:56:14.687Z,95.98
2022-10-02T13:58:57.430Z,96.51
2022-10-02T14:01:35.663Z,96.48
2022-10-02T14:04:27.253Z,97.11
2022-10-02T14:07:00.726Z,96.40
2022-10-02T14:09:36.646Z,96.19
2022-10-02T14:12:23.222Z,96.56
2022-10-02T14:15:07.327Z,96.31
2022-10-02T14:17:42.321Z,96.38
2022-10-02T14:20:23.421Z,96.49
2022-10-02T14:23:09.516Z,96.69
2022-10-02T14:25:51.907Z,96.73
2022-10-02T14:28:34.794Z,96.90
2022-10-02T14:31:17.534Z,97.51
2022-10-02T14:34:08.616Z,97.41
2022-10-02T14:36:41.124Z,98.68
2022-10-02T14:39:21.084Z,99.25
2022-10-02T14:42:03.756Z,99.48
2022-10-02T14:44:57.254Z,98.27
2022-10-02T14:47:42.372Z,97.91
2022-10-02T14:50:34.039Z,99.29
2022-10-02T14:53:15.480Z,99.77
2022-10-02T14:56:22.540Z,100.00
2022-10-02T14:59:04.927Z,100.00
2022-10-02T15:01:42.141Z,100.00
2022-10-02T15:04:29.164Z,100.00
2022-10-02T15:07:07.720Z,100.00
2022-10-02T15:09:49.159Z,100.00
2022-10-02T15:12:20.750Z,100.00
2022-10-02T15:14:58.943Z,100.00
2022-10-02T15:17:53.751Z,100.00
2022-10-02T15:20:27.364Z,100.00
2022-10-02T15:22:57.373Z,100.00
2022-10-02T15:25:36.533Z,100.00
2022-10-02T15:28:35.212Z,100.00
2022-10-02T15:31:17.021Z,100.00
2022-10-02T15:33:56.696Z,100.00
2022-10-02T15:36:37.175Z,100.00
2022-10-02T15:39:32.161Z,100.00
2022-10-02T15:42:05.946Z,100.00
2022-10-02T15:45:07.336Z,100.00
2022-10-02T15:47:58.661Z,100.00
2022-10-02T15:50:43.870Z,100.00
2022-10-02T15:53:32.392Z,100.00
2022-10-02T15:56:19.937Z,100.00
2022-10-02T15:59:08.513Z,100.00
2022-10-02T16:01:52.234Z,100.00
2022-10-02T16:04:24.951Z,100.00
2022-10-02T16:07:37.047Z,100.00
2022-10-02T16:10:18.192Z,100.00
2022-10-02T16:13:22.260Z,100.00
2022-10-02T16:15:53.210Z,100.00
2022-10-02T16:18:35.117Z,100.00
2022-10-02T16:21:33.721Z,100.00
2022-10-02T16:24:25.165Z,100.00
2022-10-02T16:27:20.172Z,100.00
2022-10-02T16:30:03.881Z,100.00
2022-10-02T16:32:35.935Z,100.00
2022-10-02T16:35:26.002Z,100.00
2022-10-02T16:38:00.841Z,100.00
2022-10-02T16:40:41.044Z,100.00
2022-10-02T16:43:43.099Z,100.00
2022-10-02T16:46:14.382Z,100.00
2022-10-02T16:48:52.902Z,100.00
2022-10-02T16:51:39.919Z,100.00
2022-10-02T16:54:16.666Z,100.00
2022-10-02T16:56:53.255Z,100.00
2022-10-02T16:59:28.014Z,100.00
2022-10-02T17:02:18.937Z,100.00
2022-10-02T17:04:59.953Z,100.00
2022-10-02T17:07:37.086Z,100.00
2022-10-02T17:10:19.180Z,100.00
2022-10-02T17:12:56.975Z,100.00
2022-10-02T17:15:34.197Z,100.00
2022-10-02T17:18:12.256Z,100.00
2022-10-02T17:20:44.678Z,100.00
2022-10-02T17:23:20.352Z,100.00
2022-10-02T17:25:58.364Z,100.00
2022-10-02T17:28:35.976Z,100.00
2022-10-02T17:31:17.672Z,100.00
2022-10-02T17:33:47.878Z,100.00
2022-10-02T17:36:21.087Z,100.00
2022-10-02T17:39:08.152Z,100.00
2022-10-02T17:41:48.348Z,100.00
2022-10-02T17:44:25.167Z,100.00
2022-10-02T17:47:16.204Z,100.00
2022-10-02T17:49:57.715Z,100.00
2022-10-02T17:52:50.040Z,100.00
2022-10-02T17:55:54.100Z,100.00
2022-10-02T17:58:31.429Z,100.00
2022-10-02T18:01:13.664Z,100.00
2022-10-02T18:04:03.429Z,100.00
2022-10-02T18:06:41.822Z,100.00
2022-10-02T18:09:30.724Z,100.00
2022-10-02T18:12:18.665Z,100.00
2022-10-02T18:15:04.652Z,100.00
2022-10-02T18:17:45.961Z,100.00
2022-10-02T18:20:24.377Z,100.00
2022-10-02T18:23:11.244Z,100.00
2022-10-02T18:25:56.905Z,100.00
2022-10-02T18:28:48.486Z,100.00
2022-10-02T18:31:51.108Z,100.00
2022-10-02T18:34:38.191Z,100.00
2022-10-02T18:37:25.317Z,100.00
2022-10-02T18:40:06.839Z,100.00
2022-10-02T18:42:46.452Z,100.00
2022-10-02T18:45:36.771Z,100.00
2022-10-02T18:48:19.980Z,100.00
2022-10-02T18:51:16.734Z,100.00
2022-10-02T18:53:59.232Z,100.00
2022-10-02T18:56:44.340Z,100.00
2022-10-02T18:59:23.316Z,100.00
2022-10-02T19:02:03.016Z,100.00
2022-10-02T19:04:59.867Z,100.00
2022-10-02T19:07:37.665Z,100.00
2022-10-02T19:10:26.151Z,100.00
2022-10-02T19:12:57.354Z,100.00
2022-10-02T19:15:28.313Z,100.00
2022-10-02T19:18:01.257Z,100.00
2022-10-02T19:20:38.079Z,100.00
2022-10-02T19:23:10.016Z,100.00
2022-10-02T19:25:37.576Z,100.00
2022-10-02T19:28:06.420Z,100.00
2022-10-02T19:30:34.660Z,100.00
2022-10-02T19:33:07.568Z,100.00
2022-10-02T19:35:42.392Z,100.00
2022-10-02T19:38:21.055Z,100.00
2022-10-02T19:40:53.880Z,100.00
2022-10-02T19:43:26.433Z,100.00
2022-10-02T19:45:58.575Z,100.00
2022-10-02T19:48:28.821Z,100.00
2022-10-02T19:50:59.423Z,100.00
2022-10-02T19:53:34.009Z,100.00
2022-10-02T19:56:04.815Z,100.00
2022-10-02T19:58:38.557Z,100.00
2022-10-02T20:01:16.594Z,100.00
2022-10-02T20:03:45.274Z,100.00
2022-10-02T20:06:17.612Z,100.00
2022-10-02T20:08:54.743Z,100.00
2022-10-02T20:11:31.206Z,100.00
2022-10-02T20:14:05.388Z,100.00
2022-10-02T20:16:50.633Z,100.00
2022-10-02T20:19:21.695Z,100.00
2022-10-02T20:21:52.194Z,100.00
2022-10-02T20:24:27.780Z,100.00
2022-10-02T20:27:01.980Z,100.00
2022-10-02T20:29:36.948Z,100.00
2022-10-02T20:32:09.399Z,100.00
2022-10-02T20:34:40.753Z,100.00
2022-10-02T20:37:13.776Z,100.00
2022-10-02T20:39:49.412Z,100.00
2022-10-02T20:42:22.817Z,100.00
2022-10-02T20:44:51.291Z,100.00
2022-10-02T20:48:03.632Z,100.00
2022-10-02T20:50:41.359Z,100.00
2022-10-02T20:53:37.102Z,100.00
2022-10-02T20:56:11.131Z,100.00
2022-10-02T20:59:06.734Z,100.00
2022-10-02T21:01:46.064Z,100.00
2022-10-02T21:04:44.558Z,100.00
2022-10-02T21:07:50.228Z,100.00
2022-10-02T21:10:53.089Z,100.00
2022-10-02T21:13:48.440Z,100.00
2022-10-02T21:16:52.593Z,100.00
2022-10-02T21:19:34.958Z,100.00
2022-10-02T21:22:47.033Z,100.00
2022-10-02T21:25:37.882Z,100.00
2022-10-02T21:28:41.734Z,100.00
2022-10-02T21:31:24.729Z,100.00
2022-10-02T21:34:04.383Z,100.00
2022-10-02T21:36:35.484Z,100.00
2022-10-02T21:39:48.397Z,100.00
2022-10-02T21:42:44.448Z,100.00
2022-10-02T21:45:45.223Z,100.00
2022-10-02T21:49:15.226Z,100.00
2022-10-02T21:52:17.007Z,100.00
2022-10-02T21:55:18.491Z,100.00
2022-10-02T21:58:12.869Z,100.00
2022-10-02T22:00:56.205Z,100.00
2022-10-02T22:03:45.377Z,100.00
2022-10-02T22:06:31.889Z,100.00
2022-10-02T22:09:12.312Z,100.00
2022-10-02T22:11:50.843Z,100.00
2022-10-02T22:14:28.147Z,100.00
2022-10-02T22:17:05.096Z,100.00
2022-10-02T22:19:48.927Z,100.00
2022-10-02T22:22:26.813Z,100.00
2022-10-02T22:25:07.341Z,100.00
2022-10-02T22:28:03.571Z,100.00
2022-10-02T22:30:38.405Z,100.00
2022-10-02T22:33:21.037Z,100.00
2022-10-02T22:36:17.969Z,100.00
2022-10-02T22:38:49.893Z,100.00
2022-10-02T22:41:27.321Z,100.00
2022-10-02T22:43:57.831Z,100.00
2022-10-02T22:46:37.793Z,100.00
2022-10-02T22:49:19.275Z,100.00
2022-10-02T22:52:00.031Z,100.00
2022-10-02T22:54:33.843Z,100.00
2022-10-02T22:57:14.616Z,100.00
2022-10-02T22:59:50.578Z,100.00
2022-10-02T23:02:23.613Z,100.00
2022-10-02T23:05:00.181Z,100.00
2022-10-02T23:07:34.949Z,100.00
2022-10-02T23:10:05.975Z,100.00
2022-10-02T23:12:39.481Z,100.00
2022-10-02T23:15:23.148Z,100.00
2022-10-02T23:17:56.203Z,100.00
2022-10-02T23:20:31.601Z,100.00
2022-10-02T23:23:09.272Z,100.00
2022-10-02T23:25:45.504Z,100.00
2022-10-02T23:28:19.314Z,100.00
2022-10-02T23:30:51.555Z,100.00
2022-10-02T23:33:25.936Z,100.00
2022-10-02T23:36:02.537Z,100.00
2022-10-02T23:38:42.214Z,100.00
2022-10-02T23:41:33.758Z,100.00
2022-10-02T23:44:13.173Z,100.00
2022-10-02T23:46:59.211Z,100.00
2022-10-02T23:49:35.032Z,100.00
2022-10-02T23:52:29.029Z,100.00
2022-10-02T23:55:03.786Z,100.00
2022-10-02T23:57:45.839Z,100.00
